createdAt,value
2022-08-05T00:01:20.960Z,20.14
2022-08-05T00:04:14.112Z,20.10
2022-08-05T00:06:59.575Z,19.23
2022-08-05T00:09:45.396Z,19.87
2022-08-05T00:12:31.398Z,19.81
2022-08-05T00:15:54.082Z,19.80
2022-08-05T00:18:22.893Z,19.73
2022-08-05T00:21:09.295Z,19.72
2022-08-05T00:24:10.723Z,19.70
2022-08-05T00:26:56.976Z,19.73
2022-08-05T00:29:45.084Z,18.86
2022-08-05T00:32:30.937Z,19.65
2022-08-05T00:35:17.035Z,19.66
2022-08-05T00:38:06.467Z,19.66
2022-08-05T00:40:57.144Z,19.20
2022-08-05T00:43:47.143Z,19.72
2022-08-05T00:46:42.610Z,18.94
2022-08-05T00:49:32.406Z,19.39
2022-08-05T00:52:28.222Z,19.43
2022-08-05T00:55:14.931Z,19.50
2022-08-05T00:58:01.021Z,19.08
2022-08-05T01:00:47.882Z,18.62
2022-08-05T01:03:37.929Z,19.48
2022-08-05T01:06:28.920Z,19.50
2022-08-05T01:09:20.047Z,19.43
2022-08-05T01:12:18.867Z,19.05
2022-08-05T01:15:36.275Z,19.52
2022-08-05T01:18:21.132Z,19.46
2022-08-05T01:21:38.107Z,19.14
2022-08-05T01:24:45.027Z,18.34
2022-08-05T01:27:55.042Z,18.67
2022-08-05T01:30:55.174Z,19.25
2022-08-05T01:34:00.956Z,19.56
2022-08-05T01:36:53.849Z,19.51
2022-08-05T01:39:47.543Z,19.43
2022-08-05T01:42:36.678Z,19.29
2022-08-05T01:45:24.985Z,17.14
2022-08-05T01:48:11.777Z,18.11
2022-08-05T01:51:00.124Z,18.17
2022-08-05T01:54:02.187Z,19.21
2022-08-05T01:58:10.630Z,18.99
2022-08-05T02:00:01.036Z,18.96
2022-08-05T02:02:58.083Z,17.89
2022-08-05T02:05:45.798Z,18.61
2022-08-05T02:08:40.865Z,18.77
2022-08-05T02:12:17.783Z,18.77
2022-08-05T02:15:19.562Z,17.74
2022-08-05T02:18:32.236Z,18.84
2022-08-05T02:21:31.775Z,18.81
2022-08-05T02:24:37.011Z,18.23
2022-08-05T02:27:30.226Z,18.73
2022-08-05T02:30:51.557Z,18.68
2022-08-05T02:33:45.103Z,18.63
2022-08-05T02:36:36.963Z,18.62
2022-08-05T02:39:25.393Z,17.45
2022-08-05T02:42:22.527Z,18.18
2022-08-05T02:45:16.465Z,18.61
2022-08-05T02:48:12.024Z,18.63
2022-08-05T02:51:01.083Z,18.61
2022-08-05T02:53:48.662Z,17.39
2022-08-05T02:56:43.551Z,18.55
2022-08-05T02:59:47.794Z,18.33
2022-08-05T03:02:44.302Z,18.53
2022-08-05T03:06:55.155Z,18.55
2022-08-05T03:08:42.743Z,18.52
2022-08-05T03:11:56.411Z,18.33
2022-08-05T03:14:35.497Z,18.48
2022-08-05T03:17:32.440Z,18.41
2022-08-05T03:20:27.217Z,18.39
2022-08-05T03:23:13.826Z,18.22
2022-08-05T03:26:04.761Z,18.29
2022-08-05T03:29:05.687Z,17.77
2022-08-05T03:32:00.455Z,18.22
2022-08-05T03:34:50.467Z,17.19
2022-08-05T03:37:44.689Z,18.25
2022-08-05T03:40:32.841Z,17.97
2022-08-05T03:44:09.598Z,17.20
2022-08-05T03:46:26.758Z,18.40
2022-08-05T03:49:15.922Z,18.35
2022-08-05T03:52:37.149Z,17.24
2022-08-05T03:56:05.809Z,18.24
2022-08-05T03:58:28.900Z,18.26
2022-08-05T04:01:20.734Z,17.90
2022-08-05T04:04:10.155Z,17.37
2022-08-05T04:06:58.020Z,18.02
2022-08-05T04:09:53.065Z,18.16
2022-08-05T04:15:24.722Z,17.31
2022-08-05T04:18:12.717Z,16.76
2022-08-05T04:21:07.754Z,17.64
2022-08-05T04:24:06.666Z,18.33
2022-08-05T04:26:52.675Z,18.53
2022-08-05T04:29:39.095Z,18.47
2022-08-05T04:32:31.008Z,17.40
2022-08-05T04:35:19.821Z,18.42
2022-08-05T04:38:06.901Z,18.13
2022-08-05T04:40:53.703Z,18.35
2022-08-05T04:43:46.639Z,18.33
2022-08-05T04:46:42.024Z,18.33
2022-08-05T04:49:38.499Z,18.52
2022-08-05T04:52:40.553Z,18.66
2022-08-05T04:56:14.429Z,18.89
2022-08-05T04:58:34.203Z,18.79
2022-08-05T05:02:06.139Z,19.52
2022-08-05T05:04:35.067Z,19.93
2022-08-05T05:07:29.765Z,20.28
2022-08-05T05:10:19.088Z,20.25
2022-08-05T05:13:06.009Z,20.90
2022-08-05T05:15:57.634Z,21.33
2022-08-05T05:19:36.501Z,21.72
2022-08-05T05:22:44.286Z,21.61
2022-08-05T05:25:41.077Z,22.48
2022-08-05T05:28:28.227Z,22.88
2022-08-05T05:31:18.531Z,23.20
2022-08-05T05:34:05.250Z,23.49
2022-08-05T05:36:51.769Z,23.72
2022-08-05T05:39:38.661Z,23.98
2022-08-05T05:42:28.820Z,23.91
2022-08-05T05:45:16.304Z,24.25
2022-08-05T05:48:06.371Z,24.48
2022-08-05T05:50:54.465Z,24.67
2022-08-05T05:53:54.310Z,24.04
2022-08-05T05:56:45.293Z,24.65
2022-08-05T05:59:33.407Z,24.86
2022-08-05T06:02:32.797Z,24.93
2022-08-05T06:05:23.741Z,25.14
2022-08-05T06:08:10.863Z,25.29
2022-08-05T06:10:56.872Z,24.55
2022-08-05T06:13:53.947Z,25.53
2022-08-05T06:16:39.998Z,25.51
2022-08-05T06:19:34.910Z,25.58
2022-08-05T06:22:35.095Z,25.49
2022-08-05T06:25:59.173Z,25.99
2022-08-05T06:28:27.422Z,25.52
2022-08-05T06:31:17.882Z,26.25
2022-08-05T06:34:09.145Z,26.39
2022-08-05T06:36:58.115Z,26.44
2022-08-05T06:39:44.465Z,26.39
2022-08-05T06:42:30.471Z,26.06
2022-08-05T06:45:21.176Z,26.58
2022-08-05T06:48:53.009Z,26.31
2022-08-05T06:51:30.756Z,26.74
2022-08-05T06:54:19.119Z,26.99
2022-08-05T06:57:14.055Z,26.88
2022-08-05T07:00:12.032Z,27.13
2022-08-05T07:02:59.514Z,27.03
2022-08-05T07:05:47.298Z,27.26
2022-08-05T07:08:33.561Z,26.19
2022-08-05T07:11:22.529Z,27.36
2022-08-05T07:14:32.244Z,27.26
2022-08-05T07:17:59.724Z,27.39
2022-08-05T07:20:37.199Z,27.46
2022-08-05T07:23:30.204Z,27.57
2022-08-05T07:26:22.608Z,27.66
2022-08-05T07:29:11.464Z,27.71
2022-08-05T07:31:59.748Z,27.72
2022-08-05T07:34:50.229Z,27.77
2022-08-05T07:37:44.701Z,27.82
2022-08-05T07:40:33.715Z,27.91
2022-08-05T07:43:21.453Z,27.84
2022-08-05T07:46:07.175Z,28.16
2022-08-05T07:49:14.233Z,28.24
2022-08-05T07:52:00.992Z,28.32
2022-08-05T07:54:49.340Z,28.32
2022-08-05T07:57:56.229Z,28.35
2022-08-05T08:00:42.639Z,28.36
2022-08-05T08:03:44.365Z,28.42
2022-08-05T08:06:32.770Z,28.19
2022-08-05T08:09:18.217Z,28.39
2022-08-05T08:12:19.967Z,28.47
2022-08-05T08:15:15.242Z,28.30
2022-08-05T08:18:01.864Z,28.61
2022-08-05T08:21:02.963Z,28.56
2022-08-05T08:24:01.502Z,28.54
2022-08-05T08:26:50.948Z,28.75
2022-08-05T08:30:04.159Z,28.83
2022-08-05T08:32:43.838Z,28.88
2022-08-05T08:35:35.007Z,28.76
2022-08-05T08:38:35.499Z,28.43
2022-08-05T08:41:26.136Z,28.81
2022-08-05T08:45:16.308Z,28.53
2022-08-05T08:48:05.879Z,28.80
2022-08-05T08:51:03.772Z,28.69
2022-08-05T08:53:54.731Z,28.85
2022-08-05T08:56:47.773Z,28.48
2022-08-05T08:59:36.561Z,28.56
2022-08-05T09:02:26.904Z,28.76
2022-08-05T09:05:16.359Z,28.81
2022-08-05T09:08:04.174Z,28.88
2022-08-05T09:10:51.870Z,28.92
2022-08-05T09:14:00.864Z,28.74
2022-08-05T09:16:48.972Z,29.01
2022-08-05T09:19:36.596Z,29.06
2022-08-05T09:23:05.525Z,29.20
2022-08-05T09:26:21.147Z,29.28
2022-08-05T09:29:09.175Z,29.36
2022-08-05T09:32:41.756Z,29.46
2022-08-05T09:35:26.612Z,29.53
2022-08-05T09:38:18.364Z,29.61
2022-08-05T09:41:16.092Z,29.57
2022-08-05T09:44:02.117Z,28.79
2022-08-05T09:46:51.644Z,28.52
2022-08-05T09:50:02.316Z,29.40
2022-08-05T09:52:57.680Z,29.32
2022-08-05T09:55:56.421Z,28.47
2022-08-05T09:59:06.182Z,28.73
2022-08-05T10:01:57.992Z,28.94
2022-08-05T10:04:45.486Z,28.66
2022-08-05T10:08:35.255Z,28.43
2022-08-05T10:11:15.042Z,29.20
2022-08-05T10:14:22.649Z,29.26
2022-08-05T10:17:37.875Z,29.02
2022-08-05T10:20:21.901Z,29.20
2022-08-05T10:23:34.062Z,29.45
2022-08-05T10:26:16.476Z,29.48
2022-08-05T10:29:02.885Z,29.54
2022-08-05T10:32:54.349Z,29.52
2022-08-05T10:35:01.079Z,29.34
2022-08-05T10:37:48.041Z,29.57
2022-08-05T10:40:43.479Z,29.59
2022-08-05T10:43:46.382Z,29.60
2022-08-05T10:46:46.046Z,29.62
2022-08-05T10:50:32.496Z,29.59
2022-08-05T10:53:06.929Z,29.56
2022-08-05T10:56:21.058Z,29.63
2022-08-05T11:00:01.299Z,29.66
2022-08-05T11:02:38.158Z,29.80
2022-08-05T11:05:29.001Z,29.86
2022-08-05T11:08:33.932Z,29.91
2022-08-05T11:11:42.066Z,29.94
2022-08-05T11:17:59.261Z,29.16
2022-08-05T11:20:51.419Z,29.29
2022-08-05T11:24:05.689Z,29.40
2022-08-05T11:27:51.491Z,29.90
2022-08-05T11:30:58.326Z,29.02
2022-08-05T11:33:47.910Z,29.87
2022-08-05T11:36:52.979Z,29.54
2022-08-05T11:40:00.700Z,29.63
2022-08-05T11:42:50.396Z,29.55
2022-08-05T11:46:27.133Z,29.80
2022-08-05T11:48:55.110Z,28.98
2022-08-05T11:51:49.762Z,29.98
2022-08-05T11:54:38.361Z,29.97
2022-08-05T11:58:08.610Z,30.03
2022-08-05T12:00:38.989Z,29.88
2022-08-05T12:03:28.966Z,29.99
2022-08-05T12:06:21.191Z,29.85
2022-08-05T12:09:07.748Z,29.71
2022-08-05T12:12:08.666Z,29.62
2022-08-05T12:14:58.316Z,29.64
2022-08-05T12:18:10.077Z,29.67
2022-08-05T12:20:53.365Z,29.75
2022-08-05T12:23:43.130Z,29.78
2022-08-05T12:26:48.118Z,29.81
2022-08-05T12:29:38.029Z,29.73
2022-08-05T12:32:25.950Z,29.65
2022-08-05T12:35:16.928Z,29.55
2022-08-05T12:38:10.988Z,29.45
2022-08-05T12:40:57.582Z,29.24
2022-08-05T12:43:57.643Z,29.47
2022-08-05T12:46:53.384Z,29.34
2022-08-05T12:50:02.319Z,29.60
2022-08-05T12:52:59.958Z,29.70
2022-08-05T12:55:47.991Z,29.73
2022-08-05T12:58:49.717Z,29.00
2022-08-05T13:02:02.673Z,29.89
2022-08-05T13:04:52.555Z,29.10
2022-08-05T13:07:59.517Z,29.62
2022-08-05T13:10:50.510Z,30.03
2022-08-05T13:14:04.539Z,30.07
2022-08-05T13:16:56.562Z,30.07
2022-08-05T13:19:58.380Z,30.07
2022-08-05T13:22:53.034Z,29.92
2022-08-05T13:25:52.207Z,29.89
2022-08-05T13:28:46.423Z,29.45
2022-08-05T13:32:04.171Z,29.50
2022-08-05T13:34:40.910Z,29.57
2022-08-05T13:37:34.460Z,28.76
2022-08-05T13:40:35.577Z,29.32
2022-08-05T13:43:43.310Z,29.31
2022-08-05T13:46:43.873Z,29.24
2022-08-05T13:49:36.153Z,28.54
2022-08-05T13:52:29.944Z,29.47
2022-08-05T13:55:41.774Z,29.54
2022-08-05T13:58:30.531Z,29.54
2022-08-05T14:01:17.477Z,29.50
2022-08-05T14:04:22.219Z,29.39
2022-08-05T14:07:57.062Z,29.38
2022-08-05T14:10:28.929Z,29.38
2022-08-05T14:13:17.031Z,28.92
2022-08-05T14:16:11.197Z,28.36
2022-08-05T14:18:57.205Z,29.01
2022-08-05T14:22:09.122Z,29.15
2022-08-05T14:24:57.458Z,29.23
2022-08-05T14:27:47.349Z,29.30
2022-08-05T14:30:33.746Z,29.36
2022-08-05T14:33:22.879Z,28.86
2022-08-05T14:36:09.404Z,29.38
2022-08-05T14:38:57.040Z,29.45
2022-08-05T14:42:08.739Z,29.51
2022-08-05T14:44:50.768Z,29.53
2022-08-05T14:48:02.890Z,29.58
2022-08-05T14:50:43.441Z,29.38
2022-08-05T14:53:30.651Z,29.52
2022-08-05T14:56:22.772Z,29.07
2022-08-05T14:59:09.111Z,29.33
2022-08-05T15:01:55.454Z,28.67
2022-08-05T15:04:43.887Z,29.16
2022-08-05T15:08:12.251Z,29.10
2022-08-05T15:10:37.686Z,29.05
2022-08-05T15:13:24.329Z,29.08
2022-08-05T15:16:30.341Z,29.06
2022-08-05T15:19:23.722Z,29.04
2022-08-05T15:22:10.400Z,29.04
2022-08-05T15:24:59.193Z,28.16
2022-08-05T15:27:52.116Z,29.12
2022-08-05T15:30:38.371Z,29.15
2022-08-05T15:34:04.588Z,29.22
2022-08-05T15:36:32.387Z,29.24
2022-08-05T15:41:00.503Z,29.22
2022-08-05T15:42:54.786Z,29.19
2022-08-05T15:45:38.131Z,29.20
2022-08-05T15:48:25.038Z,29.27
2022-08-05T15:51:11.324Z,29.18
2022-08-05T15:53:57.608Z,29.24
2022-08-05T15:56:45.414Z,29.18
2022-08-05T15:59:32.128Z,28.20
2022-08-05T16:02:28.689Z,29.14
2022-08-05T16:05:15.023Z,29.13
2022-08-05T16:08:01.335Z,29.07
2022-08-05T16:10:46.871Z,29.07
2022-08-05T16:13:34.799Z,29.01
2022-08-05T16:16:25.401Z,29.08
2022-08-05T16:19:12.085Z,28.98
2022-08-05T16:22:11.236Z,28.16
2022-08-05T16:25:00.815Z,28.60
2022-08-05T16:28:04.852Z,28.15
2022-08-05T16:30:53.072Z,28.88
2022-08-05T16:33:41.525Z,28.26
2022-08-05T16:36:27.838Z,28.91
2022-08-05T16:39:13.891Z,28.91
2022-08-05T16:42:13.972Z,28.85
2022-08-05T16:45:05.893Z,28.33
2022-08-05T16:48:10.407Z,28.22
2022-08-05T16:50:56.756Z,28.91
2022-08-05T16:54:03.263Z,28.87
2022-08-05T16:56:52.223Z,27.74
2022-08-05T17:00:01.434Z,28.81
2022-08-05T17:02:46.012Z,28.77
2022-08-05T17:05:32.499Z,27.85
2022-08-05T17:08:36.251Z,28.65
2022-08-05T17:11:30.893Z,28.58
2022-08-05T17:14:37.386Z,28.48
2022-08-05T17:17:24.305Z,27.69
2022-08-05T17:20:28.793Z,28.31
2022-08-05T17:24:03.450Z,28.25
2022-08-05T17:26:21.126Z,27.30
2022-08-05T17:29:10.089Z,27.90
2022-08-05T17:31:58.167Z,27.95
2022-08-05T17:34:48.077Z,27.23
2022-08-05T17:37:41.523Z,27.17
2022-08-05T17:40:31.632Z,27.54
2022-08-05T17:43:16.950Z,27.53
2022-08-05T17:46:03.451Z,27.33
2022-08-05T17:48:50.373Z,27.35
2022-08-05T17:51:40.444Z,27.18
2022-08-05T17:54:26.517Z,27.06
2022-08-05T17:57:12.516Z,26.99
2022-08-05T18:00:04.747Z,27.12
2022-08-05T18:02:54.541Z,25.96
2022-08-05T18:05:40.278Z,26.11
2022-08-05T18:08:26.260Z,26.89
2022-08-05T18:11:24.817Z,26.73
2022-08-05T18:14:20.503Z,26.69
2022-08-05T18:17:08.336Z,25.94
2022-08-05T18:20:15.663Z,26.53
2022-08-05T18:23:09.534Z,26.46
2022-08-05T18:25:59.520Z,25.67
2022-08-05T18:28:46.431Z,26.16
2022-08-05T18:31:33.027Z,25.78
2022-08-05T18:34:21.922Z,26.30
2022-08-05T18:37:12.507Z,26.24
2022-08-05T18:41:51.185Z,26.11
2022-08-05T18:43:05.227Z,25.63
2022-08-05T18:45:54.729Z,26.01
2022-08-05T18:48:42.121Z,25.92
2022-08-05T18:52:06.400Z,25.89
2022-08-05T18:54:51.943Z,24.87
2022-08-05T18:57:43.642Z,25.69
2022-08-05T19:00:39.570Z,25.51
2022-08-05T19:03:53.309Z,25.40
2022-08-05T19:06:37.429Z,25.28
2022-08-05T19:09:39.379Z,25.02
2022-08-05T19:12:25.901Z,24.73
2022-08-05T19:15:57.788Z,25.21
2022-08-05T19:18:20.752Z,25.19
2022-08-05T19:21:08.351Z,25.06
2022-08-05T19:24:06.997Z,24.78
2022-08-05T19:26:55.613Z,23.87
2022-08-05T19:29:42.841Z,24.53
2022-08-05T19:32:29.383Z,23.73
2022-08-05T19:35:16.360Z,24.33
2022-08-05T19:38:06.247Z,23.96
2022-08-05T19:40:58.463Z,24.27
2022-08-05T19:44:06.192Z,23.26
2022-08-05T19:46:51.707Z,24.30
2022-08-05T19:49:38.664Z,24.31
2022-08-05T19:52:40.552Z,23.98
2022-08-05T19:56:13.767Z,24.24
2022-08-05T19:58:33.055Z,24.30
2022-08-05T20:01:41.123Z,24.27
2022-08-05T20:04:30.335Z,24.14
2022-08-05T20:07:46.886Z,24.17
2022-08-05T20:10:24.478Z,24.13
2022-08-05T20:13:12.289Z,24.04
2022-08-05T20:16:01.899Z,23.12
2022-08-05T20:18:55.348Z,23.86
2022-08-05T20:21:43.429Z,23.84
2022-08-05T20:24:32.501Z,22.97
2022-08-05T20:27:18.402Z,23.90
2022-08-05T20:30:09.628Z,23.92
2022-08-05T20:32:55.844Z,23.81
2022-08-05T20:35:45.269Z,23.92
2022-08-05T20:38:35.623Z,23.91
2022-08-05T20:41:24.270Z,23.82
2022-08-05T20:44:19.387Z,23.73
2022-08-05T20:47:17.354Z,23.55
2022-08-05T20:50:07.462Z,23.60
2022-08-05T20:52:54.078Z,23.44
2022-08-05T20:55:56.291Z,22.48
2022-08-05T20:58:45.552Z,22.83
2022-08-05T21:01:37.203Z,23.19
2022-08-05T21:04:24.310Z,22.98
2022-08-05T21:07:13.962Z,22.30
2022-08-05T21:09:59.288Z,23.02
2022-08-05T21:13:08.756Z,23.06
2022-08-05T21:15:51.511Z,22.03
2022-08-05T21:18:37.704Z,22.92
2022-08-05T21:21:24.452Z,23.05
2022-08-05T21:24:12.612Z,23.03
2022-08-05T21:26:59.015Z,22.96
2022-08-05T21:29:48.472Z,22.99
2022-08-05T21:32:36.652Z,22.44
2022-08-05T21:35:30.405Z,22.94
2022-08-05T21:38:29.986Z,22.49
2022-08-05T21:41:15.778Z,22.46
2022-08-05T21:44:06.467Z,22.22
2022-08-05T21:46:52.148Z,21.88
2022-08-05T21:49:58.908Z,22.86
2022-08-05T21:52:45.913Z,22.78
2022-08-05T21:56:04.270Z,22.71
2022-08-05T21:58:56.929Z,22.32
2022-08-05T22:01:44.865Z,22.52
2022-08-05T22:04:32.446Z,22.48
2022-08-05T22:07:18.323Z,22.42
2022-08-05T22:10:26.731Z,22.37
2022-08-05T22:14:34.118Z,22.31
2022-08-05T22:16:40.484Z,22.25
2022-08-05T22:20:01.157Z,21.84
2022-08-05T22:22:31.246Z,22.26
2022-08-05T22:26:10.246Z,22.25
2022-08-05T22:28:41.838Z,21.19
2022-08-05T22:31:30.194Z,22.03
2022-08-05T22:34:20.204Z,21.80
2022-08-05T22:37:14.076Z,20.97
2022-08-05T22:39:59.824Z,21.45
2022-08-05T22:42:53.256Z,21.24
2022-08-05T22:45:43.841Z,21.67
2022-08-05T22:48:30.696Z,20.63
2022-08-05T22:51:22.683Z,20.61
2022-08-05T22:54:09.115Z,21.69
2022-08-05T22:56:54.528Z,20.59
2022-08-05T22:59:46.086Z,20.65
2022-08-05T23:02:39.874Z,21.45
2022-08-05T23:05:35.944Z,21.34
2022-08-05T23:08:22.635Z,20.56
2022-08-05T23:11:08.679Z,20.85
2022-08-05T23:13:54.862Z,20.73
2022-08-05T23:16:59.282Z,20.78
2022-08-05T23:19:50.858Z,20.84
2022-08-05T23:22:42.106Z,20.02
2022-08-05T23:25:52.671Z,20.22
2022-08-05T23:28:33.373Z,20.83
2022-08-05T23:31:18.656Z,20.70
2022-08-05T23:34:06.768Z,20.10
2022-08-05T23:36:53.028Z,20.00
2022-08-05T23:39:53.611Z,21.07
2022-08-05T23:42:39.577Z,20.36
2022-08-05T23:45:25.456Z,20.80
2022-08-05T23:48:11.691Z,20.40
2022-08-05T23:50:57.113Z,20.33
2022-08-05T23:53:46.505Z,20.92
2022-08-05T23:56:32.207Z,21.04
2022-08-05T23:59:17.693Z,20.20
